sensor_id;sensor_type;location;lat;lon;timestamp;temperature;humidity
59309;DHT22;48433;53.016;-2.260;2023-07-30T00:01:28;15.20;99.90
59309;DHT22;48433;53.016;-2.260;2023-07-30T00:03:55;15.20;99.90
59309;DHT22;48433;53.016;-2.260;2023-07-30T00:06:23;15.20;99.90
59309;DHT22;48433;53.016;-2.260;2023-07-30T00:08:51;15.10;99.90
59309;DHT22;48433;53.016;-2.260;2023-07-30T00:11:18;15.10;99.90
59309;DHT22;48433;53.016;-2.260;2023-07-30T00:13:46;15.10;99.90
59309;DHT22;48433;53.016;-2.260;2023-07-30T00:16:14;15.00;99.90
59309;DHT22;48433;53.016;-2.260;2023-07-30T00:18:41;14.90;99.90
59309;DHT22;48433;53.016;-2.260;2023-07-30T00:21:09;14.80;99.90
59309;DHT22;48433;53.016;-2.260;2023-07-30T00:23:37;14.80;99.90
59309;DHT22;48433;53.016;-2.260;2023-07-30T00:26:04;14.70;99.90
59309;DHT22;48433;53.016;-2.260;2023-07-30T00:28:32;14.60;99.90
59309;DHT22;48433;53.016;-2.260;2023-07-30T00:31:00;14.60;99.90
59309;DHT22;48433;53.016;-2.260;2023-07-30T00:33:27;14.50;99.90
59309;DHT22;48433;53.016;-2.260;2023-07-30T00:35:55;14.50;99.90
59309;DHT22;48433;53.016;-2.260;2023-07-30T00:38:22;14.50;99.90
59309;DHT22;48433;53.016;-2.260;2023-07-30T00:40:50;14.50;99.90
59309;DHT22;48433;53.016;-2.260;2023-07-30T00:43:18;14.50;99.90
59309;DHT22;48433;53.016;-2.260;2023-07-30T00:45:46;14.50;99.90
59309;DHT22;48433;53.016;-2.260;2023-07-30T00:48:14;14.60;99.90
59309;DHT22;48433;53.016;-2.260;2023-07-30T00:50:42;14.60;99.90
59309;DHT22;48433;53.016;-2.260;2023-07-30T00:53:11;14.70;99.90
59309;DHT22;48433;53.016;-2.260;2023-07-30T00:55:41;14.80;99.90
59309;DHT22;48433;53.016;-2.260;2023-07-30T00:58:10;14.80;99.90
59309;DHT22;48433;53.016;-2.260;2023-07-30T01:00:40;14.80;99.90
59309;DHT22;48433;53.016;-2.260;2023-07-30T01:03:08;14.90;99.90
59309;DHT22;48433;53.016;-2.260;2023-07-30T01:05:36;14.90;99.90
59309;DHT22;48433;53.016;-2.260;2023-07-30T01:08:04;15.00;99.90
59309;DHT22;48433;53.016;-2.260;2023-07-30T01:10:32;15.00;99.90
59309;DHT22;48433;53.016;-2.260;2023-07-30T01:13:01;15.00;99.90
59309;DHT22;48433;53.016;-2.260;2023-07-30T01:15:31;15.00;99.90
59309;DHT22;48433;53.016;-2.260;2023-07-30T01:18:00;15.00;99.90
59309;DHT22;48433;53.016;-2.260;2023-07-30T01:20:31;15.00;99.90
59309;DHT22;48433;53.016;-2.260;2023-07-30T01:22:59;15.00;99.90
59309;DHT22;48433;53.016;-2.260;2023-07-30T01:25:32;14.90;99.90
59309;DHT22;48433;53.016;-2.260;2023-07-30T01:28:01;14.80;99.90
59309;DHT22;48433;53.016;-2.260;2023-07-30T01:30:38;14.80;99.90
59309;DHT22;48433;53.016;-2.260;2023-07-30T01:33:10;14.70;99.90
59309;DHT22;48433;53.016;-2.260;2023-07-30T01:35:38;14.70;99.90
59309;DHT22;48433;53.016;-2.260;2023-07-30T01:38:07;14.60;99.90
59309;DHT22;48433;53.016;-2.260;2023-07-30T01:40:35;14.60;99.90
59309;DHT22;48433;53.016;-2.260;2023-07-30T01:43:03;14.50;99.90
59309;DHT22;48433;53.016;-2.260;2023-07-30T01:45:30;14.40;99.90
59309;DHT22;48433;53.016;-2.260;2023-07-30T01:50:27;14.30;99.90
59309;DHT22;48433;53.016;-2.260;2023-07-30T01:52:54;14.20;99.90
59309;DHT22;48433;53.016;-2.260;2023-07-30T01:55:22;14.10;99.90
59309;DHT22;48433;53.016;-2.260;2023-07-30T01:57:50;14.10;99.90
59309;DHT22;48433;53.016;-2.260;2023-07-30T02:00:17;14.10;99.90
59309;DHT22;48433;53.016;-2.260;2023-07-30T02:02:45;14.00;99.90
59309;DHT22;48433;53.016;-2.260;2023-07-30T02:05:13;14.00;99.90
59309;DHT22;48433;53.016;-2.260;2023-07-30T02:07:44;14.00;99.90
59309;DHT22;48433;53.016;-2.260;2023-07-30T02:10:12;13.90;99.90
59309;DHT22;48433;53.016;-2.260;2023-07-30T02:12:39;13.90;99.90
59309;DHT22;48433;53.016;-2.260;2023-07-30T02:15:07;13.90;99.90
59309;DHT22;48433;53.016;-2.260;2023-07-30T02:17:35;13.90;99.90
59309;DHT22;48433;53.016;-2.260;2023-07-30T02:20:03;13.90;99.90
59309;DHT22;48433;53.016;-2.260;2023-07-30T02:22:31;13.90;99.90
59309;DHT22;48433;53.016;-2.260;2023-07-30T02:24:59;13.90;99.90
59309;DHT22;48433;53.016;-2.260;2023-07-30T02:27:27;13.90;99.90
59309;DHT22;48433;53.016;-2.260;2023-07-30T02:29:54;13.90;99.90
59309;DHT22;48433;53.016;-2.260;2023-07-30T02:32:22;13.90;99.90
59309;DHT22;48433;53.016;-2.260;2023-07-30T02:34:50;14.00;99.90
59309;DHT22;48433;53.016;-2.260;2023-07-30T02:37:17;14.00;99.90
59309;DHT22;48433;53.016;-2.260;2023-07-30T02:39:45;14.10;99.90
59309;DHT22;48433;53.016;-2.260;2023-07-30T02:42:13;14.20;99.90
59309;DHT22;48433;53.016;-2.260;2023-07-30T02:44:40;14.20;99.90
59309;DHT22;48433;53.016;-2.260;2023-07-30T02:47:08;14.20;99.90
59309;DHT22;48433;53.016;-2.260;2023-07-30T02:49:35;14.30;99.90
59309;DHT22;48433;53.016;-2.260;2023-07-30T02:52:03;14.30;99.90
59309;DHT22;48433;53.016;-2.260;2023-07-30T02:54:31;14.40;99.90
59309;DHT22;48433;53.016;-2.260;2023-07-30T02:56:59;14.40;99.90
59309;DHT22;48433;53.016;-2.260;2023-07-30T02:59:27;14.40;99.90
59309;DHT22;48433;53.016;-2.260;2023-07-30T03:01:55;14.50;99.90
59309;DHT22;48433;53.016;-2.260;2023-07-30T03:04:23;14.50;99.90
59309;DHT22;48433;53.016;-2.260;2023-07-30T03:06:50;14.50;99.90
59309;DHT22;48433;53.016;-2.260;2023-07-30T03:09:18;14.50;99.90
59309;DHT22;48433;53.016;-2.260;2023-07-30T03:11:46;14.50;99.90
59309;DHT22;48433;53.016;-2.260;2023-07-30T03:14:13;14.50;99.90
59309;DHT22;48433;53.016;-2.260;2023-07-30T03:16:41;14.50;99.90
59309;DHT22;48433;53.016;-2.260;2023-07-30T03:19:09;14.40;99.90
59309;DHT22;48433;53.016;-2.260;2023-07-30T03:21:37;14.40;99.90
59309;DHT22;48433;53.016;-2.260;2023-07-30T03:24:05;14.40;99.90
59309;DHT22;48433;53.016;-2.260;2023-07-30T03:26:32;14.30;99.90
59309;DHT22;48433;53.016;-2.260;2023-07-30T03:29:00;14.20;99.90
59309;DHT22;48433;53.016;-2.260;2023-07-30T03:31:28;14.20;99.90
59309;DHT22;48433;53.016;-2.260;2023-07-30T03:33:56;14.10;99.90
59309;DHT22;48433;53.016;-2.260;2023-07-30T03:36:23;14.10;99.90
59309;DHT22;48433;53.016;-2.260;2023-07-30T03:38:52;14.00;99.90
59309;DHT22;48433;53.016;-2.260;2023-07-30T03:41:20;14.00;99.90
59309;DHT22;48433;53.016;-2.260;2023-07-30T03:43:48;14.00;99.90
59309;DHT22;48433;53.016;-2.260;2023-07-30T03:46:15;13.90;99.90
59309;DHT22;48433;53.016;-2.260;2023-07-30T03:48:43;13.90;99.90
59309;DHT22;48433;53.016;-2.260;2023-07-30T03:51:11;13.90;99.90
59309;DHT22;48433;53.016;-2.260;2023-07-30T03:53:38;13.90;99.90
59309;DHT22;48433;53.016;-2.260;2023-07-30T03:56:06;13.90;99.90
59309;DHT22;48433;53.016;-2.260;2023-07-30T03:58:33;13.90;99.90
59309;DHT22;48433;53.016;-2.260;2023-07-30T04:01:01;13.90;99.90
59309;DHT22;48433;53.016;-2.260;2023-07-30T04:03:29;13.90;99.90
59309;DHT22;48433;53.016;-2.260;2023-07-30T04:05:57;13.90;99.90
59309;DHT22;48433;53.016;-2.260;2023-07-30T04:08:26;13.90;99.90
59309;DHT22;48433;53.016;-2.260;2023-07-30T04:10:53;13.90;99.90
59309;DHT22;48433;53.016;-2.260;2023-07-30T04:13:21;13.80;99.90
59309;DHT22;48433;53.016;-2.260;2023-07-30T04:15:49;13.80;99.90
59309;DHT22;48433;53.016;-2.260;2023-07-30T04:18:16;13.70;99.90
59309;DHT22;48433;53.016;-2.260;2023-07-30T04:20:44;13.60;99.90
59309;DHT22;48433;53.016;-2.260;2023-07-30T04:23:12;13.60;99.90
59309;DHT22;48433;53.016;-2.260;2023-07-30T04:25:40;13.50;99.90
59309;DHT22;48433;53.016;-2.260;2023-07-30T04:30:37;13.30;99.90
59309;DHT22;48433;53.016;-2.260;2023-07-30T04:33:05;13.30;99.90
59309;DHT22;48433;53.016;-2.260;2023-07-30T04:35:35;13.30;99.90
59309;DHT22;48433;53.016;-2.260;2023-07-30T04:38:03;13.30;99.90
59309;DHT22;48433;53.016;-2.260;2023-07-30T04:40:31;13.30;99.90
59309;DHT22;48433;53.016;-2.260;2023-07-30T04:42:58;13.30;99.90
59309;DHT22;48433;53.016;-2.260;2023-07-30T04:45:27;13.30;99.90
59309;DHT22;48433;53.016;-2.260;2023-07-30T04:47:56;13.90;99.90
59309;DHT22;48433;53.016;-2.260;2023-07-30T04:50:23;13.20;99.90
59309;DHT22;48433;53.016;-2.260;2023-07-30T04:52:51;13.20;99.90
59309;DHT22;48433;53.016;-2.260;2023-07-30T04:55:19;13.30;99.90
59309;DHT22;48433;53.016;-2.260;2023-07-30T04:57:47;13.20;99.90
59309;DHT22;48433;53.016;-2.260;2023-07-30T05:00:14;13.30;99.90
59309;DHT22;48433;53.016;-2.260;2023-07-30T05:02:42;13.40;99.90
59309;DHT22;48433;53.016;-2.260;2023-07-30T05:05:10;13.40;99.90
59309;DHT22;48433;53.016;-2.260;2023-07-30T05:07:37;13.50;99.90
59309;DHT22;48433;53.016;-2.260;2023-07-30T05:10:05;13.60;99.90
59309;DHT22;48433;53.016;-2.260;2023-07-30T05:12:35;13.60;99.90
59309;DHT22;48433;53.016;-2.260;2023-07-30T05:15:03;13.70;99.90
59309;DHT22;48433;53.016;-2.260;2023-07-30T05:17:31;13.80;99.90
59309;DHT22;48433;53.016;-2.260;2023-07-30T05:19:59;13.80;99.90
59309;DHT22;48433;53.016;-2.260;2023-07-30T05:22:26;13.90;99.90
59309;DHT22;48433;53.016;-2.260;2023-07-30T05:24:54;13.90;99.90
59309;DHT22;48433;53.016;-2.260;2023-07-30T05:27:21;13.90;99.90
59309;DHT22;48433;53.016;-2.260;2023-07-30T05:29:49;14.00;99.90
59309;DHT22;48433;53.016;-2.260;2023-07-30T05:32:17;14.00;99.90
59309;DHT22;48433;53.016;-2.260;2023-07-30T05:34:44;14.10;99.90
59309;DHT22;48433;53.016;-2.260;2023-07-30T05:37:12;14.20;99.90
59309;DHT22;48433;53.016;-2.260;2023-07-30T05:39:39;14.20;99.90
59309;DHT22;48433;53.016;-2.260;2023-07-30T05:42:07;14.30;99.90
59309;DHT22;48433;53.016;-2.260;2023-07-30T05:44:35;14.30;99.90
59309;DHT22;48433;53.016;-2.260;2023-07-30T05:47:02;14.30;99.90
59309;DHT22;48433;53.016;-2.260;2023-07-30T05:49:30;14.40;99.90
59309;DHT22;48433;53.016;-2.260;2023-07-30T05:51:58;14.40;99.90
59309;DHT22;48433;53.016;-2.260;2023-07-30T05:54:25;14.50;99.90
59309;DHT22;48433;53.016;-2.260;2023-07-30T05:56:53;14.60;99.90
59309;DHT22;48433;53.016;-2.260;2023-07-30T05:59:20;14.70;99.90
59309;DHT22;48433;53.016;-2.260;2023-07-30T06:01:50;14.70;99.90
59309;DHT22;48433;53.016;-2.260;2023-07-30T06:04:17;14.70;99.90
59309;DHT22;48433;53.016;-2.260;2023-07-30T06:06:45;14.80;99.90
59309;DHT22;48433;53.016;-2.260;2023-07-30T06:09:12;14.90;99.90
59309;DHT22;48433;53.016;-2.260;2023-07-30T06:11:40;14.90;99.90
59309;DHT22;48433;53.016;-2.260;2023-07-30T06:14:08;15.00;99.90
59309;DHT22;48433;53.016;-2.260;2023-07-30T06:16:36;15.00;99.90
59309;DHT22;48433;53.016;-2.260;2023-07-30T06:19:03;15.00;99.90
59309;DHT22;48433;53.016;-2.260;2023-07-30T06:21:31;15.00;99.90
59309;DHT22;48433;53.016;-2.260;2023-07-30T06:23:58;15.10;99.90
59309;DHT22;48433;53.016;-2.260;2023-07-30T06:26:26;15.10;99.90
59309;DHT22;48433;53.016;-2.260;2023-07-30T06:28:54;15.30;99.90
59309;DHT22;48433;53.016;-2.260;2023-07-30T06:31:21;15.30;99.90
59309;DHT22;48433;53.016;-2.260;2023-07-30T06:33:49;15.40;99.90
59309;DHT22;48433;53.016;-2.260;2023-07-30T06:36:16;15.40;99.90
59309;DHT22;48433;53.016;-2.260;2023-07-30T06:38:44;15.50;99.90
59309;DHT22;48433;53.016;-2.260;2023-07-30T06:41:12;15.50;99.90
59309;DHT22;48433;53.016;-2.260;2023-07-30T06:43:39;15.50;99.90
59309;DHT22;48433;53.016;-2.260;2023-07-30T06:46:07;15.40;99.90
59309;DHT22;48433;53.016;-2.260;2023-07-30T06:48:35;15.50;99.90
59309;DHT22;48433;53.016;-2.260;2023-07-30T06:51:06;15.50;99.90
59309;DHT22;48433;53.016;-2.260;2023-07-30T06:53:34;15.50;99.90
59309;DHT22;48433;53.016;-2.260;2023-07-30T06:56:01;15.50;99.90
59309;DHT22;48433;53.016;-2.260;2023-07-30T06:58:29;15.60;99.90
59309;DHT22;48433;53.016;-2.260;2023-07-30T07:00:57;15.70;99.90
59309;DHT22;48433;53.016;-2.260;2023-07-30T07:03:24;15.70;99.90
59309;DHT22;48433;53.016;-2.260;2023-07-30T07:05:53;15.80;99.90
59309;DHT22;48433;53.016;-2.260;2023-07-30T07:08:23;15.80;99.90
59309;DHT22;48433;53.016;-2.260;2023-07-30T07:10:50;15.80;99.90
59309;DHT22;48433;53.016;-2.260;2023-07-30T07:13:18;15.90;99.90
59309;DHT22;48433;53.016;-2.260;2023-07-30T07:15:46;16.00;99.90
59309;DHT22;48433;53.016;-2.260;2023-07-30T07:18:14;16.20;99.90
59309;DHT22;48433;53.016;-2.260;2023-07-30T07:20:42;16.30;99.90
59309;DHT22;48433;53.016;-2.260;2023-07-30T07:23:10;16.50;99.90
59309;DHT22;48433;53.016;-2.260;2023-07-30T07:25:40;16.50;99.90
59309;DHT22;48433;53.016;-2.260;2023-07-30T07:28:07;16.50;99.90
59309;DHT22;48433;53.016;-2.260;2023-07-30T07:30:36;16.60;99.90
59309;DHT22;48433;53.016;-2.260;2023-07-30T07:33:06;16.60;99.90
59309;DHT22;48433;53.016;-2.260;2023-07-30T07:35:37;16.60;99.90
59309;DHT22;48433;53.016;-2.260;2023-07-30T07:38:05;16.70;99.90
59309;DHT22;48433;53.016;-2.260;2023-07-30T07:40:37;16.70;99.90
59309;DHT22;48433;53.016;-2.260;2023-07-30T07:43:08;16.80;99.90
59309;DHT22;48433;53.016;-2.260;2023-07-30T07:45:36;16.80;99.90
59309;DHT22;48433;53.016;-2.260;2023-07-30T07:48:04;16.90;99.90
59309;DHT22;48433;53.016;-2.260;2023-07-30T07:50:32;17.10;99.90
59309;DHT22;48433;53.016;-2.260;2023-07-30T07:52:59;17.20;99.90
59309;DHT22;48433;53.016;-2.260;2023-07-30T07:55:27;17.20;99.90
59309;DHT22;48433;53.016;-2.260;2023-07-30T07:57:55;17.40;99.90
59309;DHT22;48433;53.016;-2.260;2023-07-30T08:00:22;17.40;99.90
59309;DHT22;48433;53.016;-2.260;2023-07-30T08:02:50;17.50;99.90
59309;DHT22;48433;53.016;-2.260;2023-07-30T08:05:18;17.70;99.90
59309;DHT22;48433;53.016;-2.260;2023-07-30T08:07:47;17.80;99.90
59309;DHT22;48433;53.016;-2.260;2023-07-30T08:10:15;17.90;99.90
59309;DHT22;48433;53.016;-2.260;2023-07-30T08:12:42;17.90;99.90
59309;DHT22;48433;53.016;-2.260;2023-07-30T08:15:10;17.90;99.90
59309;DHT22;48433;53.016;-2.260;2023-07-30T08:17:38;17.90;99.90
59309;DHT22;48433;53.016;-2.260;2023-07-30T08:20:06;17.90;99.90
59309;DHT22;48433;53.016;-2.260;2023-07-30T08:22:34;17.90;99.90
59309;DHT22;48433;53.016;-2.260;2023-07-30T08:25:02;18.00;99.90
59309;DHT22;48433;53.016;-2.260;2023-07-30T08:27:30;18.10;99.90
59309;DHT22;48433;53.016;-2.260;2023-07-30T08:29:58;18.30;99.90
59309;DHT22;48433;53.016;-2.260;2023-07-30T08:32:25;18.40;99.90
59309;DHT22;48433;53.016;-2.260;2023-07-30T08:34:53;18.60;99.90
59309;DHT22;48433;53.016;-2.260;2023-07-30T08:37:21;18.80;99.90
59309;DHT22;48433;53.016;-2.260;2023-07-30T08:39:48;19.00;99.90
59309;DHT22;48433;53.016;-2.260;2023-07-30T08:42:16;19.10;99.90
59309;DHT22;48433;53.016;-2.260;2023-07-30T08:44:44;19.30;99.90
59309;DHT22;48433;53.016;-2.260;2023-07-30T08:47:13;19.40;99.90
59309;DHT22;48433;53.016;-2.260;2023-07-30T08:49:41;19.50;99.90
59309;DHT22;48433;53.016;-2.260;2023-07-30T08:52:09;19.50;99.90
59309;DHT22;48433;53.016;-2.260;2023-07-30T08:54:38;19.50;99.90
59309;DHT22;48433;53.016;-2.260;2023-07-30T08:57:07;19.50;99.90
59309;DHT22;48433;53.016;-2.260;2023-07-30T08:59:42;19.30;99.90
59309;DHT22;48433;53.016;-2.260;2023-07-30T09:02:16;19.30;99.90
59309;DHT22;48433;53.016;-2.260;2023-07-30T09:04:47;19.30;99.90
59309;DHT22;48433;53.016;-2.260;2023-07-30T09:07:16;19.40;99.90
59309;DHT22;48433;53.016;-2.260;2023-07-30T09:09:44;19.30;99.90
59309;DHT22;48433;53.016;-2.260;2023-07-30T09:12:13;19.20;99.90
59309;DHT22;48433;53.016;-2.260;2023-07-30T09:14:43;19.10;99.90
59309;DHT22;48433;53.016;-2.260;2023-07-30T09:17:20;19.00;99.90
59309;DHT22;48433;53.016;-2.260;2023-07-30T09:19:47;18.90;99.90
59309;DHT22;48433;53.016;-2.260;2023-07-30T09:22:26;18.80;99.90
59309;DHT22;48433;53.016;-2.260;2023-07-30T09:24:57;18.50;99.90
59309;DHT22;48433;53.016;-2.260;2023-07-30T09:27:26;18.30;99.90
59309;DHT22;48433;53.016;-2.260;2023-07-30T09:29:55;18.10;99.90
59309;DHT22;48433;53.016;-2.260;2023-07-30T09:32:33;18.10;99.90
59309;DHT22;48433;53.016;-2.260;2023-07-30T09:35:05;18.30;99.90
59309;DHT22;48433;53.016;-2.260;2023-07-30T09:37:40;18.50;99.90
59309;DHT22;48433;53.016;-2.260;2023-07-30T09:40:10;18.80;99.90
59309;DHT22;48433;53.016;-2.260;2023-07-30T09:42:43;18.80;99.90
59309;DHT22;48433;53.016;-2.260;2023-07-30T09:45:21;18.80;99.90
59309;DHT22;48433;53.016;-2.260;2023-07-30T09:47:50;18.70;99.90
59309;DHT22;48433;53.016;-2.260;2023-07-30T09:50:18;18.60;99.90
59309;DHT22;48433;53.016;-2.260;2023-07-30T09:52:46;18.50;99.90
59309;DHT22;48433;53.016;-2.260;2023-07-30T09:55:15;18.30;99.90
59309;DHT22;48433;53.016;-2.260;2023-07-30T09:57:43;18.10;99.90
59309;DHT22;48433;53.016;-2.260;2023-07-30T10:00:11;17.90;99.90
59309;DHT22;48433;53.016;-2.260;2023-07-30T10:02:41;18.00;99.90
59309;DHT22;48433;53.016;-2.260;2023-07-30T10:05:15;18.20;99.90
59309;DHT22;48433;53.016;-2.260;2023-07-30T10:07:54;18.40;99.90
59309;DHT22;48433;53.016;-2.260;2023-07-30T10:10:24;18.80;99.90
59309;DHT22;48433;53.016;-2.260;2023-07-30T10:12:53;19.00;99.90
59309;DHT22;48433;53.016;-2.260;2023-07-30T10:15:22;19.00;99.90
59309;DHT22;48433;53.016;-2.260;2023-07-30T10:17:51;19.00;99.90
59309;DHT22;48433;53.016;-2.260;2023-07-30T10:20:20;18.70;99.90
59309;DHT22;48433;53.016;-2.260;2023-07-30T10:22:52;18.70;99.90
59309;DHT22;48433;53.016;-2.260;2023-07-30T10:25:27;18.60;99.90
59309;DHT22;48433;53.016;-2.260;2023-07-30T10:27:55;18.70;99.90
59309;DHT22;48433;53.016;-2.260;2023-07-30T10:30:30;18.50;99.90
59309;DHT22;48433;53.016;-2.260;2023-07-30T10:33:00;18.40;99.90
59309;DHT22;48433;53.016;-2.260;2023-07-30T10:35:43;18.10;99.90
59309;DHT22;48433;53.016;-2.260;2023-07-30T10:38:18;18.00;99.90
59309;DHT22;48433;53.016;-2.260;2023-07-30T10:43:40;19.20;99.90
59309;DHT22;48433;53.016;-2.260;2023-07-30T10:46:10;19.90;99.90
59309;DHT22;48433;53.016;-2.260;2023-07-30T10:48:44;20.40;99.90
59309;DHT22;48433;53.016;-2.260;2023-07-30T10:51:14;20.40;99.90
59309;DHT22;48433;53.016;-2.260;2023-07-30T10:53:50;20.60;99.90
59309;DHT22;48433;53.016;-2.260;2023-07-30T10:56:22;20.60;99.90
59309;DHT22;48433;53.016;-2.260;2023-07-30T10:58:52;20.30;99.90
59309;DHT22;48433;53.016;-2.260;2023-07-30T11:01:24;20.30;99.90
59309;DHT22;48433;53.016;-2.260;2023-07-30T11:03:52;20.30;99.90
59309;DHT22;48433;53.016;-2.260;2023-07-30T11:06:24;20.20;99.90
59309;DHT22;48433;53.016;-2.260;2023-07-30T11:08:52;20.10;99.90
59309;DHT22;48433;53.016;-2.260;2023-07-30T11:11:20;20.00;99.90
59309;DHT22;48433;53.016;-2.260;2023-07-30T11:13:48;20.00;99.90
59309;DHT22;48433;53.016;-2.260;2023-07-30T11:16:16;20.20;99.90
59309;DHT22;48433;53.016;-2.260;2023-07-30T11:18:44;20.80;99.90
59309;DHT22;48433;53.016;-2.260;2023-07-30T11:21:17;20.80;99.90
59309;DHT22;48433;53.016;-2.260;2023-07-30T11:23:46;21.00;99.90
59309;DHT22;48433;53.016;-2.260;2023-07-30T11:26:19;20.90;99.90
59309;DHT22;48433;53.016;-2.260;2023-07-30T11:28:47;20.70;99.90
59309;DHT22;48433;53.016;-2.260;2023-07-30T11:31:17;20.70;99.90
59309;DHT22;48433;53.016;-2.260;2023-07-30T11:33:48;20.50;99.90
59309;DHT22;48433;53.016;-2.260;2023-07-30T11:36:19;20.40;99.90
59309;DHT22;48433;53.016;-2.260;2023-07-30T11:38:48;20.10;99.90
59309;DHT22;48433;53.016;-2.260;2023-07-30T11:41:15;20.00;99.90
59309;DHT22;48433;53.016;-2.260;2023-07-30T11:43:44;20.10;99.90
59309;DHT22;48433;53.016;-2.260;2023-07-30T11:46:16;20.20;99.90
59309;DHT22;48433;53.016;-2.260;2023-07-30T11:48:46;20.20;99.90
59309;DHT22;48433;53.016;-2.260;2023-07-30T11:51:25;20.20;99.90
59309;DHT22;48433;53.016;-2.260;2023-07-30T11:53:58;20.20;99.90
59309;DHT22;48433;53.016;-2.260;2023-07-30T11:56:33;20.10;99.90
59309;DHT22;48433;53.016;-2.260;2023-07-30T11:59:04;19.70;99.90
59309;DHT22;48433;53.016;-2.260;2023-07-30T12:01:35;19.70;99.90
59309;DHT22;48433;53.016;-2.260;2023-07-30T12:04:05;19.50;99.90
59309;DHT22;48433;53.016;-2.260;2023-07-30T12:06:41;19.30;99.90
59309;DHT22;48433;53.016;-2.260;2023-07-30T12:09:19;19.20;99.90
59309;DHT22;48433;53.016;-2.260;2023-07-30T12:11:51;19.20;99.90
59309;DHT22;48433;53.016;-2.260;2023-07-30T12:14:22;19.20;99.90
59309;DHT22;48433;53.016;-2.260;2023-07-30T12:16:53;19.20;99.90
59309;DHT22;48433;53.016;-2.260;2023-07-30T12:19:20;19.20;99.90
59309;DHT22;48433;53.016;-2.260;2023-07-30T12:21:48;19.20;99.90
59309;DHT22;48433;53.016;-2.260;2023-07-30T12:24:16;19.20;99.90
59309;DHT22;48433;53.016;-2.260;2023-07-30T12:26:43;19.10;99.90
59309;DHT22;48433;53.016;-2.260;2023-07-30T12:29:11;19.10;99.90
59309;DHT22;48433;53.016;-2.260;2023-07-30T12:31:38;19.20;99.90
59309;DHT22;48433;53.016;-2.260;2023-07-30T12:34:06;19.20;99.90
59309;DHT22;48433;53.016;-2.260;2023-07-30T12:36:34;19.40;99.90
59309;DHT22;48433;53.016;-2.260;2023-07-30T12:39:02;19.50;99.90
59309;DHT22;48433;53.016;-2.260;2023-07-30T12:41:30;19.50;99.90
59309;DHT22;48433;53.016;-2.260;2023-07-30T12:43:57;19.50;99.90
59309;DHT22;48433;53.016;-2.260;2023-07-30T12:46:25;19.40;99.90
59309;DHT22;48433;53.016;-2.260;2023-07-30T12:48:57;19.40;99.90
59309;DHT22;48433;53.016;-2.260;2023-07-30T12:51:26;19.40;99.90
59309;DHT22;48433;53.016;-2.260;2023-07-30T12:53:53;19.50;99.90
59309;DHT22;48433;53.016;-2.260;2023-07-30T12:56:21;19.50;99.90
59309;DHT22;48433;53.016;-2.260;2023-07-30T12:58:48;19.60;99.30
59309;DHT22;48433;53.016;-2.260;2023-07-30T13:01:16;19.60;99.60
59309;DHT22;48433;53.016;-2.260;2023-07-30T13:03:43;19.60;99.80
59309;DHT22;48433;53.016;-2.260;2023-07-30T13:06:14;19.70;99.90
59309;DHT22;48433;53.016;-2.260;2023-07-30T13:08:41;19.80;99.00
59309;DHT22;48433;53.016;-2.260;2023-07-30T13:11:09;19.80;99.30
59309;DHT22;48433;53.016;-2.260;2023-07-30T13:13:37;19.90;99.50
59309;DHT22;48433;53.016;-2.260;2023-07-30T13:16:04;20.00;99.00
59309;DHT22;48433;53.016;-2.260;2023-07-30T13:18:32;20.10;99.40
59309;DHT22;48433;53.016;-2.260;2023-07-30T13:20:59;20.20;98.60
59309;DHT22;48433;53.016;-2.260;2023-07-30T13:23:27;20.30;98.90
59309;DHT22;48433;53.016;-2.260;2023-07-30T13:25:56;20.50;99.00
59309;DHT22;48433;53.016;-2.260;2023-07-30T13:28:23;20.70;98.40
59309;DHT22;48433;53.016;-2.260;2023-07-30T13:30:51;20.80;97.70
59309;DHT22;48433;53.016;-2.260;2023-07-30T13:33:20;20.80;97.40
59309;DHT22;48433;53.016;-2.260;2023-07-30T13:35:48;20.60;97.60
59309;DHT22;48433;53.016;-2.260;2023-07-30T13:38:15;20.50;97.50
59309;DHT22;48433;53.016;-2.260;2023-07-30T13:40:43;20.30;97.90
59309;DHT22;48433;53.016;-2.260;2023-07-30T13:43:10;20.30;98.30
59309;DHT22;48433;53.016;-2.260;2023-07-30T13:45:38;20.40;98.60
59309;DHT22;48433;53.016;-2.260;2023-07-30T13:48:06;20.30;98.50
59309;DHT22;48433;53.016;-2.260;2023-07-30T13:50:34;20.20;98.50
59309;DHT22;48433;53.016;-2.260;2023-07-30T13:53:01;20.20;98.50
59309;DHT22;48433;53.016;-2.260;2023-07-30T13:55:29;20.00;98.30
59309;DHT22;48433;53.016;-2.260;2023-07-30T13:57:57;19.90;98.80
59309;DHT22;48433;53.016;-2.260;2023-07-30T14:00:24;19.70;98.80
59309;DHT22;48433;53.016;-2.260;2023-07-30T14:02:52;19.70;99.20
59309;DHT22;48433;53.016;-2.260;2023-07-30T14:05:20;19.50;99.10
59309;DHT22;48433;53.016;-2.260;2023-07-30T14:07:47;19.30;99.60
59309;DHT22;48433;53.016;-2.260;2023-07-30T14:10:17;19.00;99.80
59309;DHT22;48433;53.016;-2.260;2023-07-30T14:12:45;18.90;99.90
59309;DHT22;48433;53.016;-2.260;2023-07-30T14:15:12;18.70;99.90
59309;DHT22;48433;53.016;-2.260;2023-07-30T14:17:40;18.50;99.90
59309;DHT22;48433;53.016;-2.260;2023-07-30T14:20:08;18.20;99.90
59309;DHT22;48433;53.016;-2.260;2023-07-30T14:22:36;18.10;99.90
59309;DHT22;48433;53.016;-2.260;2023-07-30T14:25:04;17.80;99.90
59309;DHT22;48433;53.016;-2.260;2023-07-30T14:27:31;17.60;99.90
59309;DHT22;48433;53.016;-2.260;2023-07-30T14:29:59;17.40;99.90
59309;DHT22;48433;53.016;-2.260;2023-07-30T14:32:27;17.30;99.90
59309;DHT22;48433;53.016;-2.260;2023-07-30T14:34:54;17.30;99.90
59309;DHT22;48433;53.016;-2.260;2023-07-30T14:37:22;17.40;99.90
59309;DHT22;48433;53.016;-2.260;2023-07-30T14:39:50;17.60;99.90
59309;DHT22;48433;53.016;-2.260;2023-07-30T14:42:17;17.60;99.90
59309;DHT22;48433;53.016;-2.260;2023-07-30T14:44:45;17.60;99.90
59309;DHT22;48433;53.016;-2.260;2023-07-30T14:47:12;17.60;99.90
59309;DHT22;48433;53.016;-2.260;2023-07-30T14:49:40;17.70;99.90
59309;DHT22;48433;53.016;-2.260;2023-07-30T14:52:08;17.70;99.90
59309;DHT22;48433;53.016;-2.260;2023-07-30T14:54:36;17.60;99.90
59309;DHT22;48433;53.016;-2.260;2023-07-30T14:57:05;17.60;99.90
59309;DHT22;48433;53.016;-2.260;2023-07-30T14:59:32;17.30;99.90
59309;DHT22;48433;53.016;-2.260;2023-07-30T15:02:00;17.30;99.90
59309;DHT22;48433;53.016;-2.260;2023-07-30T15:04:28;17.20;99.90
59309;DHT22;48433;53.016;-2.260;2023-07-30T15:06:57;17.00;99.90
59309;DHT22;48433;53.016;-2.260;2023-07-30T15:09:24;17.00;99.90
59309;DHT22;48433;53.016;-2.260;2023-07-30T15:11:52;17.00;99.90
59309;DHT22;48433;53.016;-2.260;2023-07-30T15:14:20;17.00;99.90
59309;DHT22;48433;53.016;-2.260;2023-07-30T15:16:47;17.10;99.90
59309;DHT22;48433;53.016;-2.260;2023-07-30T15:19:15;17.20;99.90
59309;DHT22;48433;53.016;-2.260;2023-07-30T15:21:42;17.20;99.90
59309;DHT22;48433;53.016;-2.260;2023-07-30T15:24:10;17.20;99.90
59309;DHT22;48433;53.016;-2.260;2023-07-30T15:26:38;17.20;99.90
59309;DHT22;48433;53.016;-2.260;2023-07-30T15:29:06;17.20;99.90
59309;DHT22;48433;53.016;-2.260;2023-07-30T15:31:33;17.20;99.90